createdAt,value
2022-11-22T00:02:31.117Z,97887.91
2022-11-22T00:05:19.524Z,97889.16
2022-11-22T00:08:07.921Z,97876.94
2022-11-22T00:10:56.351Z,97877.56
2022-11-22T00:13:46.136Z,97872.84
2022-11-22T00:16:34.971Z,97864.84
2022-11-22T00:19:23.375Z,97852.44
2022-11-22T00:22:11.778Z,97852.94
2022-11-22T00:25:00.196Z,97853.44
2022-11-22T00:27:48.727Z,97857.34
2022-11-22T00:30:38.469Z,97859.72
2022-11-22T00:33:26.864Z,97851.91
2022-11-22T00:36:17.039Z,97851.69
2022-11-22T00:39:05.727Z,97837.94
2022-11-22T00:41:54.263Z,97845.41
2022-11-22T00:44:42.654Z,97848.06
2022-11-22T00:47:32.398Z,97847.16
2022-11-22T00:50:20.765Z,97850.56
2022-11-22T00:53:09.232Z,97850.47
2022-11-22T00:55:57.631Z,97850.25
2022-11-22T00:58:46.097Z,97842.31
2022-11-22T01:01:34.559Z,97849.69
2022-11-22T01:04:24.500Z,97850.44
2022-11-22T01:07:12.973Z,97864.03
2022-11-22T01:10:01.445Z,97867.31
2022-11-22T01:12:49.841Z,97889.31
2022-11-22T01:15:38.305Z,97893.34
2022-11-22T01:18:26.727Z,97896.63
2022-11-22T01:21:16.480Z,97905.25
2022-11-22T01:24:05.880Z,97904.34
2022-11-22T01:26:54.243Z,97894.88
2022-11-22T01:29:42.626Z,97901.75
2022-11-22T01:32:31.041Z,97898.38
2022-11-22T01:35:19.496Z,97903.63
2022-11-22T01:38:09.239Z,97912.22
2022-11-22T01:40:57.656Z,97914.00
2022-11-22T01:43:46.059Z,97913.28
2022-11-22T01:46:35.812Z,97909.06
2022-11-22T01:49:28.828Z,97912.69
2022-11-22T01:52:19.383Z,97904.13
2022-11-22T01:55:12.050Z,97908.44
2022-11-22T01:58:00.449Z,97913.41
2022-11-22T02:00:49.241Z,97913.28
2022-11-22T02:03:38.431Z,97916.78
2022-11-22T02:06:27.045Z,97911.72
2022-11-22T02:09:15.448Z,97921.22
2022-11-22T02:12:06.222Z,97923.69
2022-11-22T02:14:54.713Z,97925.53
2022-11-22T02:17:43.182Z,97939.28
2022-11-22T02:20:31.590Z,97934.88
2022-11-22T02:23:25.526Z,97934.78
2022-11-22T02:26:15.243Z,97929.50
2022-11-22T02:29:06.127Z,97927.78
2022-11-22T02:31:54.493Z,97932.94
2022-11-22T02:34:45.000Z,97939.78
2022-11-22T02:37:33.466Z,97934.56
2022-11-22T02:40:21.855Z,97944.75
2022-11-22T02:43:13.298Z,97947.31
2022-11-22T02:46:05.557Z,97943.81
2022-11-22T02:48:54.197Z,97954.72
2022-11-22T02:51:42.564Z,97955.53
2022-11-22T02:54:30.940Z,97953.78
2022-11-22T02:57:19.308Z,97954.72
2022-11-22T03:00:11.633Z,97952.06
2022-11-22T03:02:59.992Z,97962.13
2022-11-22T03:05:48.430Z,97955.13
2022-11-22T03:08:36.924Z,97953.38
2022-11-22T03:11:25.367Z,97949.03
2022-11-22T03:14:13.959Z,97956.66
2022-11-22T03:17:04.407Z,97958.28
2022-11-22T03:19:52.798Z,97964.28
2022-11-22T03:22:41.201Z,97975.47
2022-11-22T03:25:29.664Z,97972.00
2022-11-22T03:28:18.046Z,97982.28
2022-11-22T03:31:07.244Z,97975.28
2022-11-22T03:33:57.204Z,97968.50
2022-11-22T03:36:45.585Z,97970.88
2022-11-22T03:39:34.153Z,97979.50
2022-11-22T03:42:22.520Z,97977.97
2022-11-22T03:45:11.928Z,97971.78
2022-11-22T03:48:00.305Z,97978.59
2022-11-22T03:50:50.051Z,97977.16
2022-11-22T03:53:38.663Z,97982.38
2022-11-22T03:56:27.026Z,97980.84
2022-11-22T03:59:15.400Z,97993.78
2022-11-22T04:02:03.830Z,97987.84
2022-11-22T04:04:52.325Z,97993.78
2022-11-22T04:07:42.137Z,97999.75
2022-11-22T04:10:30.577Z,97996.59
2022-11-22T04:13:18.968Z,97995.03
2022-11-22T04:16:06.415Z,98002.63
2022-11-22T04:18:54.773Z,98010.25
2022-11-22T04:21:42.174Z,98008.63
2022-11-22T04:24:49.428Z,98014.69
2022-11-22T04:27:37.806Z,98011.38
2022-11-22T04:30:47.452Z,98015.50
2022-11-22T04:33:35.096Z,98018.06
2022-11-22T04:36:23.474Z,98027.53
2022-11-22T04:39:11.965Z,98022.38
2022-11-22T04:42:19.483Z,98025.69
2022-11-22T04:45:10.520Z,98024.13
2022-11-22T04:48:01.967Z,98024.88
2022-11-22T04:51:08.306Z,98019.00
2022-11-22T04:53:56.762Z,98024.22
2022-11-22T04:56:45.151Z,98031.22
2022-11-22T04:59:34.892Z,98029.59
2022-11-22T05:02:23.277Z,98027.94
2022-11-22T05:05:11.688Z,98031.22
2022-11-22T05:08:00.316Z,98025.47
2022-11-22T05:10:58.078Z,98024.53
2022-11-22T05:13:46.493Z,98025.47
2022-11-22T05:16:36.226Z,98032.34
2022-11-22T05:19:24.639Z,98038.63
2022-11-22T05:22:13.036Z,98034.69
2022-11-22T05:25:00.457Z,98030.56
2022-11-22T05:27:48.837Z,98032.41
2022-11-22T05:30:39.988Z,98035.28
2022-11-22T05:33:29.863Z,98038.97
2022-11-22T05:36:18.245Z,98045.13
2022-11-22T05:39:06.723Z,98051.41
2022-11-22T05:41:58.027Z,98061.16
2022-11-22T05:44:46.479Z,98058.06
2022-11-22T05:47:35.699Z,98061.75
2022-11-22T05:50:25.438Z,98059.34
2022-11-22T05:53:16.488Z,98072.19
2022-11-22T05:56:06.347Z,98071.38
2022-11-22T05:58:54.826Z,98081.66
2022-11-22T06:01:43.269Z,98084.94
2022-11-22T06:04:31.719Z,98091.84
2022-11-22T06:07:21.698Z,98087.44
2022-11-22T06:10:11.408Z,98090.72
2022-11-22T06:12:59.788Z,98090.53
2022-11-22T06:15:48.219Z,98091.97
2022-11-22T06:18:36.794Z,98093.63
2022-11-22T06:21:26.390Z,98101.25
2022-11-22T06:24:16.116Z,98100.22
2022-11-22T06:27:04.769Z,98108.66
2022-11-22T06:29:53.187Z,98103.50
2022-11-22T06:32:41.570Z,98113.59
2022-11-22T06:35:29.927Z,98126.34
2022-11-22T06:38:18.437Z,98114.44
2022-11-22T06:41:09.460Z,98118.78
2022-11-22T06:43:58.010Z,98129.34
2022-11-22T06:46:46.484Z,98129.34
2022-11-22T06:49:34.872Z,98137.16
2022-11-22T06:52:23.257Z,98147.50
2022-11-22T06:55:34.677Z,98145.22
2022-11-22T06:58:21.421Z,98138.53
2022-11-22T07:01:11.153Z,98148.06
2022-11-22T07:03:50.713Z,98153.22
2022-11-22T07:06:19.685Z,98157.63
2022-11-22T07:08:48.556Z,98153.22
2022-11-22T07:11:17.898Z,98167.19
2022-11-22T07:13:47.577Z,98168.84
2022-11-22T07:16:17.161Z,98161.22
2022-11-22T07:18:45.319Z,98163.69
2022-11-22T07:21:14.592Z,98168.00
2022-11-22T07:23:44.058Z,98172.31
2022-11-22T07:26:12.476Z,98179.94
2022-11-22T07:28:40.637Z,98176.56
2022-11-22T07:31:11.299Z,98180.56
2022-11-22T07:33:39.474Z,98181.41
2022-11-22T07:36:08.418Z,98184.78
2022-11-22T07:38:36.992Z,98191.56
2022-11-22T07:41:05.477Z,98192.88
2022-11-22T07:43:33.681Z,98202.13
2022-11-22T07:46:02.037Z,98207.19
2022-11-22T07:48:31.559Z,98204.72
2022-11-22T07:51:05.645Z,98215.09
2022-11-22T07:53:34.092Z,98227.97
2022-11-22T07:56:03.531Z,98231.44
2022-11-22T07:58:31.980Z,98223.00
2022-11-22T08:01:00.100Z,98219.41
2022-11-22T08:03:29.346Z,98221.06
2022-11-22T08:06:01.881Z,98235.47
2022-11-22T08:08:30.291Z,98242.97
2022-11-22T08:10:58.429Z,98248.88
2022-11-22T08:13:26.686Z,98247.16
2022-11-22T08:15:55.544Z,98265.03
2022-11-22T08:18:25.717Z,98265.84
2022-11-22T08:20:54.954Z,98272.59
2022-11-22T08:23:24.418Z,98271.44
2022-11-22T08:25:52.521Z,98273.75
2022-11-22T08:28:20.621Z,98271.81
2022-11-22T08:30:48.761Z,98262.97
2022-11-22T08:33:16.953Z,98270.41
2022-11-22T08:35:45.121Z,98254.03
2022-11-22T08:38:13.219Z,98255.69
2022-11-22T08:40:44.622Z,98260.84
2022-11-22T08:43:12.809Z,98262.41
2022-11-22T08:45:40.921Z,98262.19
2022-11-22T08:48:09.248Z,98260.47
2022-11-22T08:50:37.439Z,98260.16
2022-11-22T08:53:05.554Z,98257.38
2022-11-22T08:55:33.755Z,98257.75
2022-11-22T08:58:03.291Z,98253.75
2022-11-22T09:00:33.528Z,98255.63
2022-11-22T09:03:02.034Z,98253.28
2022-11-22T09:05:30.462Z,98260.50
2022-11-22T09:10:46.904Z,98262.66
2022-11-22T09:13:16.387Z,98256.59
2022-11-22T09:15:44.454Z,98260.59
2022-11-22T09:18:12.566Z,98263.72
2022-11-22T09:20:40.693Z,98254.34
2022-11-22T09:23:08.775Z,98262.19
2022-11-22T09:25:36.874Z,98256.91
2022-11-22T09:28:05.025Z,98246.44
2022-11-22T09:30:34.512Z,98259.41
2022-11-22T09:33:02.637Z,98261.06
2022-11-22T09:35:30.825Z,98260.84
2022-11-22T09:37:58.951Z,98267.16
2022-11-22T09:40:27.012Z,98254.44
2022-11-22T09:43:07.081Z,98260.94
2022-11-22T09:45:59.675Z,98255.84
2022-11-22T09:48:53.596Z,98243.81
2022-11-22T09:51:24.785Z,98231.81
2022-11-22T09:53:55.200Z,98240.53
2022-11-22T09:56:25.937Z,98246.97
2022-11-22T09:58:56.590Z,98251.09
2022-11-22T10:01:28.576Z,98245.19
2022-11-22T10:03:59.984Z,98244.13
2022-11-22T10:06:30.503Z,98237.31
2022-11-22T10:09:10.507Z,98238.59
2022-11-22T10:11:42.623Z,98245.09
2022-11-22T10:14:17.439Z,98247.16
2022-11-22T10:16:49.709Z,98241.06
2022-11-22T10:19:19.380Z,98241.28
2022-11-22T10:21:48.140Z,98253.41
2022-11-22T10:24:17.282Z,98251.16
2022-11-22T10:26:46.801Z,98252.59
2022-11-22T10:29:24.268Z,98256.41
2022-11-22T10:31:58.659Z,98249.91
2022-11-22T10:34:35.896Z,98253.28
2022-11-22T10:37:06.524Z,98252.56
2022-11-22T10:39:59.765Z,98257.13
2022-11-22T10:43:04.996Z,98261.75
2022-11-22T10:45:35.410Z,98259.19
2022-11-22T10:48:14.556Z,98257.31
2022-11-22T10:50:54.324Z,98260.41
2022-11-22T10:53:31.965Z,98255.88
2022-11-22T10:56:05.230Z,98258.16
2022-11-22T10:58:41.612Z,98252.69
2022-11-22T11:01:18.209Z,98247.75
2022-11-22T11:03:49.294Z,98252.28
2022-11-22T11:06:26.540Z,98245.78
2022-11-22T11:11:53.515Z,98249.72
2022-11-22T11:14:28.889Z,98243.13
2022-11-22T11:16:57.380Z,98246.00
2022-11-22T11:19:27.954Z,98247.34
2022-11-22T11:22:00.235Z,98230.00
2022-11-22T11:24:30.444Z,98233.81
2022-11-22T11:26:59.437Z,98239.03
2022-11-22T11:29:43.683Z,98239.09
2022-11-22T11:32:13.994Z,98233.38
2022-11-22T11:34:50.306Z,98224.19
2022-11-22T11:37:27.879Z,98220.03
2022-11-22T11:39:56.072Z,98225.94
2022-11-22T11:42:29.591Z,98214.94
2022-11-22T11:45:22.661Z,98219.44
2022-11-22T11:47:50.772Z,98224.59
2022-11-22T11:50:24.305Z,98214.50
2022-11-22T11:52:54.190Z,98216.38
2022-11-22T11:55:22.328Z,98219.88
2022-11-22T11:57:50.633Z,98213.53
2022-11-22T12:00:24.681Z,98209.84
2022-11-22T12:02:57.283Z,98208.78
2022-11-22T12:05:29.487Z,98201.81
2022-11-22T12:07:57.773Z,98213.84
2022-11-22T12:10:33.199Z,98213.50
2022-11-22T12:13:05.047Z,98204.44
2022-11-22T12:15:52.199Z,98195.19
2022-11-22T12:18:36.605Z,98202.59
2022-11-22T12:21:14.511Z,98202.38
2022-11-22T12:23:50.969Z,98199.78
2022-11-22T12:26:19.929Z,98193.91
2022-11-22T12:28:48.042Z,98190.38
2022-11-22T12:31:25.210Z,98191.81
2022-11-22T12:33:55.853Z,98186.44
2022-11-22T12:39:20.977Z,98173.31
2022-11-22T12:41:50.603Z,98167.19
2022-11-22T12:44:20.803Z,98159.19
2022-11-22T12:46:51.272Z,98172.56
2022-11-22T12:48:22.535Z,98179.59
2022-11-22T12:49:29.990Z,98171.09
2022-11-22T12:52:04.048Z,98168.13
2022-11-22T12:54:34.405Z,98172.44
2022-11-22T12:57:05.843Z,98172.88
2022-11-22T12:59:37.297Z,98171.19
2022-11-22T13:02:13.437Z,98168.63
2022-11-22T13:04:47.233Z,98161.50
2022-11-22T13:07:18.612Z,98165.50
2022-11-22T13:09:52.396Z,98164.78
2022-11-22T13:12:24.838Z,98177.06
2022-11-22T13:14:55.267Z,98166.28
2022-11-22T13:17:24.741Z,98178.34
2022-11-22T13:19:55.537Z,98169.56
2022-11-22T13:22:29.845Z,98159.72
2022-11-22T13:25:09.723Z,98159.53
2022-11-22T13:27:40.123Z,98169.72
2022-11-22T13:30:19.069Z,98164.88
2022-11-22T13:32:48.600Z,98169.84
2022-11-22T13:35:27.879Z,98168.78
2022-11-22T13:38:01.143Z,98162.56
2022-11-22T13:40:31.243Z,98157.53
2022-11-22T13:43:34.402Z,98164.44
2022-11-22T13:46:04.241Z,98164.69
2022-11-22T13:49:15.311Z,98158.91
2022-11-22T13:52:01.649Z,98166.97
2022-11-22T13:55:00.334Z,98169.81
2022-11-22T13:57:34.891Z,98165.56
2022-11-22T14:00:46.079Z,98171.66
2022-11-22T14:03:38.997Z,98171.66
2022-11-22T14:06:24.738Z,98164.38
2022-11-22T14:09:31.071Z,98169.25
2022-11-22T14:12:18.949Z,98166.19
2022-11-22T14:14:55.286Z,98177.63
2022-11-22T14:17:26.991Z,98175.38
2022-11-22T14:20:02.912Z,98169.63
2022-11-22T14:22:42.632Z,98169.75
2022-11-22T14:25:35.810Z,98175.41
2022-11-22T14:28:13.032Z,98172.59
2022-11-22T14:30:44.030Z,98174.31
2022-11-22T14:33:16.602Z,98177.75
2022-11-22T14:36:16.013Z,98173.09
2022-11-22T14:38:44.377Z,98181.66
2022-11-22T14:41:44.770Z,98186.22
2022-11-22T14:44:19.553Z,98194.47
2022-11-22T14:46:56.076Z,98183.94
2022-11-22T14:49:35.784Z,98201.03
2022-11-22T14:52:04.053Z,98192.72
2022-11-22T14:54:39.840Z,98207.25
2022-11-22T14:57:07.922Z,98209.31
2022-11-22T14:59:56.308Z,98199.09
2022-11-22T15:03:10.594Z,98210.44
2022-11-22T15:09:17.858Z,98203.84
2022-11-22T15:09:21.647Z,98213.44
2022-11-22T15:12:13.338Z,98219.03
2022-11-22T15:59:10.347Z,98269.78
2022-11-22T16:01:40.675Z,98272.34
2022-11-22T16:04:21.928Z,98280.81
2022-11-22T16:06:51.530Z,98288.53
2022-11-22T16:09:27.597Z,98295.53
2022-11-22T16:12:01.318Z,98291.31
2022-11-22T16:14:48.283Z,98295.00
2022-11-22T16:17:33.001Z,98311.59
2022-11-22T16:20:33.519Z,98297.38
2022-11-22T16:23:17.090Z,98300.13
2022-11-22T16:25:46.687Z,98304.66
2022-11-22T16:28:35.429Z,98304.66
2022-11-22T16:31:06.798Z,98300.72
2022-11-22T16:33:34.972Z,98304.13
2022-11-22T16:36:03.235Z,98305.22
2022-11-22T16:38:32.729Z,98302.94
2022-11-22T16:41:00.907Z,98308.31
2022-11-22T16:43:35.524Z,98300.78
2022-11-22T16:46:03.927Z,98300.16
2022-11-22T16:48:33.260Z,98304.56
2022-11-22T16:51:05.141Z,98309.72
2022-11-22T16:53:40.966Z,98318.47
2022-11-22T16:56:09.414Z,98322.06
2022-11-22T16:58:37.508Z,98321.31
2022-11-22T17:01:05.760Z,98317.09
2022-11-22T17:03:34.165Z,98329.25
2022-11-22T17:06:02.323Z,98331.81
2022-11-22T17:08:30.638Z,98333.53
2022-11-22T17:11:00.797Z,98340.44
2022-11-22T17:13:28.987Z,98330.34
2022-11-22T17:15:57.546Z,98347.44
2022-11-22T17:18:25.762Z,98352.78
2022-11-22T17:20:53.858Z,98349.38
2022-11-22T17:23:27.268Z,98359.22
2022-11-22T17:25:55.574Z,98347.63
2022-11-22T17:28:25.103Z,98346.28
2022-11-22T17:30:53.282Z,98344.72
2022-11-22T17:33:21.425Z,98343.06
2022-11-22T17:35:49.512Z,98347.38
2022-11-22T17:38:17.607Z,98360.16
2022-11-22T17:40:45.762Z,98364.22
2022-11-22T17:43:14.054Z,98356.50
2022-11-22T17:45:43.655Z,98364.00
2022-11-22T17:48:11.896Z,98352.34
2022-11-22T17:50:40.055Z,98355.63
2022-11-22T17:53:08.143Z,98358.31
2022-11-22T17:56:02.668Z,98357.69
2022-11-22T17:58:24.376Z,98366.31
2022-11-22T18:00:53.904Z,98363.75
2022-11-22T18:03:22.080Z,98369.72
2022-11-22T18:05:50.214Z,98362.00
2022-11-22T18:08:18.341Z,98367.31
2022-11-22T18:10:46.553Z,98365.03
2022-11-22T18:13:21.320Z,98363.38
2022-11-22T18:15:55.347Z,98363.38
2022-11-22T18:18:54.694Z,98374.50
2022-11-22T18:21:17.133Z,98370.28
2022-11-22T18:23:46.161Z,98373.47
2022-11-22T18:26:38.421Z,98371.00
2022-11-22T18:29:41.237Z,98365.13
2022-11-22T18:31:53.207Z,98368.59
2022-11-22T18:34:21.737Z,98375.41
2022-11-22T18:36:55.167Z,98376.53
2022-11-22T18:39:24.614Z,98377.34
2022-11-22T18:41:52.847Z,98374.00
2022-11-22T18:44:21.149Z,98371.50
2022-11-22T18:46:51.111Z,98382.00
2022-11-22T18:49:19.320Z,98375.28
2022-11-22T18:51:47.455Z,98374.34
2022-11-22T18:54:16.011Z,98380.50
2022-11-22T18:56:44.179Z,98384.91
2022-11-22T18:59:13.395Z,98380.06
2022-11-22T19:01:41.676Z,98387.88
2022-11-22T19:04:11.926Z,98387.88
2022-11-22T19:06:40.524Z,98384.38
2022-11-22T19:09:08.958Z,98389.44
2022-11-22T19:11:37.160Z,98392.09
2022-11-22T19:14:05.624Z,98390.34
2022-11-22T19:16:34.065Z,98394.56
2022-11-22T19:19:02.189Z,98388.69
2022-11-22T19:21:31.695Z,98390.34
2022-11-22T19:23:59.823Z,98391.16
2022-11-22T19:26:28.599Z,98389.31
2022-11-22T19:28:57.585Z,98385.84
2022-11-22T19:31:27.674Z,98385.94
2022-11-22T19:33:55.855Z,98396.28
2022-11-22T19:36:30.739Z,98391.16
2022-11-22T19:39:02.492Z,98399.88
2022-11-22T19:41:30.933Z,98400.00
2022-11-22T19:43:59.195Z,98400.81
2022-11-22T19:46:27.377Z,98400.06
2022-11-22T19:48:57.185Z,98401.81
2022-11-22T19:51:25.879Z,98399.25
2022-11-22T19:53:54.463Z,98408.69
2022-11-22T19:56:26.605Z,98406.09
2022-11-22T19:58:55.563Z,98410.44
2022-11-22T20:01:25.270Z,98408.78
2022-11-22T20:03:54.633Z,98407.97
2022-11-22T20:06:22.783Z,98417.50
2022-11-22T20:08:50.951Z,98410.78
2022-11-22T20:11:20.553Z,98422.00
2022-11-22T20:13:52.081Z,98415.91
2022-11-22T20:16:22.108Z,98408.41
2022-11-22T20:18:53.820Z,98418.50
2022-11-22T20:21:22.737Z,98424.56
2022-11-22T20:23:51.396Z,98431.34
2022-11-22T20:26:20.280Z,98428.06
2022-11-22T20:28:54.936Z,98434.19
2022-11-22T20:31:23.711Z,98436.75
2022-11-22T20:33:52.859Z,98438.50
2022-11-22T20:36:22.364Z,98438.50
2022-11-22T20:38:50.938Z,98439.31
2022-11-22T20:41:20.371Z,98442.56
2022-11-22T20:43:50.551Z,98439.78
2022-11-22T20:46:19.951Z,98444.94
2022-11-22T20:48:48.587Z,98454.31
2022-11-22T20:51:18.681Z,98456.88
2022-11-22T20:53:46.874Z,98458.53
2022-11-22T20:56:15.510Z,98470.47
2022-11-22T20:58:43.933Z,98468.72
2022-11-22T21:01:15.996Z,98471.38
2022-11-22T21:04:03.071Z,98475.59
2022-11-22T21:06:51.499Z,98476.50
2022-11-22T21:09:39.896Z,98477.53
2022-11-22T21:12:28.263Z,98481.09
2022-11-22T21:15:18.914Z,98487.06
2022-11-22T21:18:24.751Z,98485.41
2022-11-22T21:21:14.669Z,98482.19
2022-11-22T21:24:04.454Z,98479.81
2022-11-22T21:26:52.974Z,98490.06
2022-11-22T21:29:41.464Z,98484.19
2022-11-22T21:32:31.920Z,98497.03
2022-11-22T21:35:21.658Z,98488.59
2022-11-22T21:38:10.136Z,98491.16
2022-11-22T21:41:17.283Z,98491.16
2022-11-22T21:44:08.818Z,98488.78
2022-11-22T21:46:57.230Z,98493.91
2022-11-22T21:49:47.090Z,98496.38
2022-11-22T21:52:36.845Z,98502.25
2022-11-22T21:55:25.314Z,98499.53
2022-11-22T21:58:13.744Z,98505.31
2022-11-22T22:01:03.629Z,98512.00
2022-11-22T22:03:52.214Z,98506.78
2022-11-22T22:06:45.848Z,98506.78
2022-11-22T22:09:35.940Z,98503.47
2022-11-22T22:12:24.378Z,98517.25
2022-11-22T22:15:13.109Z,98506.13
2022-11-22T22:18:01.571Z,98510.38
2022-11-22T22:20:58.542Z,98510.28
2022-11-22T22:23:47.055Z,98509.56
2022-11-22T22:26:36.810Z,98507.06
2022-11-22T22:29:25.265Z,98508.88
2022-11-22T22:32:13.686Z,98512.13
2022-11-22T22:35:02.158Z,98514.56
2022-11-22T22:37:50.595Z,98514.31
2022-11-22T22:40:38.974Z,98528.66
2022-11-22T22:43:30.959Z,98513.22
2022-11-22T22:46:20.644Z,98519.19
2022-11-22T22:49:09.197Z,98514.91
2022-11-22T22:51:57.612Z,98514.91
2022-11-22T22:54:46.003Z,98525.34
2022-11-22T22:57:34.428Z,98530.47
2022-11-22T23:00:24.280Z,98528.66
2022-11-22T23:03:12.714Z,98531.06
2022-11-22T23:06:05.390Z,98519.84
2022-11-22T23:08:56.792Z,98519.59
2022-11-22T23:12:02.722Z,98525.47
2022-11-22T23:14:51.126Z,98529.72
2022-11-22T23:17:40.870Z,98525.22
2022-11-22T23:20:29.277Z,98530.16
2022-11-22T23:23:17.790Z,98524.94
2022-11-22T23:26:08.737Z,98525.75
2022-11-22T23:28:57.159Z,98527.44
2022-11-22T23:31:45.599Z,98522.94
2022-11-22T23:34:35.437Z,98536.53
2022-11-22T23:37:23.857Z,98522.78
2022-11-22T23:40:13.815Z,98533.91
2022-11-22T23:43:02.201Z,98525.38
2022-11-22T23:45:50.634Z,98524.28
2022-11-22T23:48:39.062Z,98532.72
2022-11-22T23:51:30.027Z,98529.16
2022-11-22T23:54:18.512Z,98524.75
2022-11-22T23:57:07.094Z,98518.66
2022-11-22T23:59:55.509Z,98524.75
